Time,TemperatureF,DewpointF,PressureIn,WindDirection,WindDirectionDegrees,WindSpeedMPH,WindSpeedGustMPH,Humidity,HourlyPrecipIn,Conditions,Clouds,dailyrainin,SolarRadiationWatts/m^2,SoftwareType,DateUTC
2013-01-06 00:05:00,38.5,35.3,30.17,SW,221,3.0,3.0,88,0.00,,,0.00,0,Wunderground v.1.15,2013-01-06 08:05:00,
2013-01-06 00:11:00,38.6,35.4,30.17,SSW,201,4.0,7.0,88,0.00,,,0.00,0,Wunderground v.1.15,2013-01-06 08:11:00,
2013-01-06 00:16:00,38.6,35.4,30.17,South,175,2.0,7.0,88,0.00,,,0.00,0,Wunderground v.1.15,2013-01-06 08:16:00,
2013-01-06 00:22:00,38.4,35.2,30.17,South,172,6.0,6.0,88,0.00,,,0.00,0,Wunderground v.1.15,2013-01-06 08:22:00,
2013-01-06 00:28:00,38.2,35.0,30.17,SSW,198,6.0,6.0,88,0.00,,,0.00,0,Wunderground v.1.15,2013-01-06 08:28:00,
2013-01-06 00:33:00,37.9,34.7,30.17,SSW,192,3.0,5.0,88,0.00,,,0.00,0,Wunderground v.1.15,2013-01-06 08:33:00,
2013-01-06 00:39:00,37.7,34.8,30.17,SSW,193,4.0,5.0,89,0.00,,,0.00,0,Wunderground v.1.15,2013-01-06 08:39:00,
2013-01-06 00:44:00,37.4,34.2,30.17,South,184,6.0,6.0,88,0.00,,,0.00,0,Wunderground v.1.15,2013-01-06 08:44:00,
2013-01-06 00:50:00,37.3,34.4,30.17,South,182,4.0,5.0,89,0.00,,,0.00,0,Wunderground v.1.15,2013-01-06 08:50:00,
2013-01-06 00:56:00,37.3,34.4,30.17,South,181,3.0,5.0,89,0.00,,,0.00,0,Wunderground v.1.15,2013-01-06 08:56:00,
2013-01-06 01:02:00,37.5,34.6,30.17,South,176,6.0,6.0,89,0.00,,,0.00,0,Wunderground v.1.15,2013-01-06 09:02:00,
2013-01-06 01:08:00,37.5,34.3,30.17,South,176,2.0,6.0,88,0.00,,,0.00,0,Wunderground v.1.15,2013-01-06 09:08:00,
2013-01-06 01:13:00,37.1,34.2,30.17,South,176,4.0,4.0,89,0.00,,,0.00,0,Wunderground v.1.15,2013-01-06 09:13:00,
2013-01-06 01:19:00,37.3,34.4,30.17,South,175,6.0,6.0,89,0.00,,,0.00,0,Wunderground v.1.15,2013-01-06 09:19:00,
2013-01-06 01:25:00,37.2,34.3,30.17,South,175,0.0,4.0,89,0.00,,,0.00,0,Wunderground v.1.15,2013-01-06 09:25:00,
2013-01-06 01:31:00,37.1,34.2,30.17,South,175,1.0,2.0,89,0.00,,,0.00,0,Wunderground v.1.15,2013-01-06 09:31:00,
2013-01-06 01:36:00,37.0,34.1,30.18,South,175,0.0,2.0,89,0.00,,,0.00,0,Wunderground v.1.15,2013-01-06 09:36:00,
2013-01-06 01:42:00,37.0,34.1,30.18,South,175,0.0,1.0,89,0.00,,,0.00,0,Wunderground v.1.15,2013-01-06 09:42:00,
2013-01-06 01:48:00,36.9,34.2,30.18,South,174,2.0,4.0,90,0.00,,,0.00,0,Wunderground v.1.15,2013-01-06 09:48:00,
2013-01-06 01:54:00,36.7,33.8,30.18,South,174,1.0,1.0,89,0.00,,,0.00,0,Wunderground v.1.15,2013-01-06 09:54:00,
2013-01-06 01:59:00,36.1,33.5,30.18,South,174,2.0,2.0,90,0.00,,,0.00,0,Wunderground v.1.15,2013-01-06 09:59:00,
2013-01-06 02:04:00,36.0,33.4,30.18,South,174,1.0,2.0,90,0.00,,,0.00,0,Wunderground v.1.15,2013-01-06 10:04:00,
2013-01-06 02:09:00,35.9,33.3,30.18,South,174,0.0,2.0,90,0.00,,,0.00,0,Wunderground v.1.15,2013-01-06 10:09:00,
2013-01-06 02:14:00,35.5,32.9,30.18,South,171,4.0,4.0,90,0.00,,,0.00,0,Wunderground v.1.15,2013-01-06 10:14:00,
2013-01-06 02:19:00,35.7,33.1,30.17,South,171,1.0,4.0,90,0.00,,,0.00,0,Wunderground v.1.15,2013-01-06 10:19:00,
2013-01-06 02:24:00,35.6,33.0,30.18,South,171,0.0,2.0,90,0.00,,,0.00,0,Wunderground v.1.15,2013-01-06 10:24:00,
2013-01-06 02:29:00,35.1,32.5,30.18,South,171,1.0,2.0,90,0.00,,,0.00,0,Wunderground v.1.15,2013-01-06 10:29:00,
2013-01-06 02:34:00,34.9,32.3,30.18,South,171,0.0,1.0,90,0.00,,,0.00,0,Wunderground v.1.15,2013-01-06 10:34:00,
2013-01-06 02:39:00,34.5,31.9,30.18,South,171,2.0,4.0,90,0.00,,,0.00,0,Wunderground v.1.15,2013-01-06 10:39:00,
2013-01-06 02:44:00,34.3,31.7,30.18,South,171,0.0,4.0,90,0.00,,,0.00,0,Wunderground v.1.15,2013-01-06 10:44:00,
2013-01-06 02:49:00,33.9,31.3,30.18,South,171,0.0,4.0,90,0.00,,,0.00,0,Wunderground v.1.15,2013-01-06 10:49:00,
2013-01-06 02:54:00,33.5,30.9,30.18,South,171,0.0,2.0,90,0.00,,,0.00,0,Wunderground v.1.15,2013-01-06 10:54:00,
2013-01-06 02:59:00,33.3,30.7,30.18,South,171,2.0,2.0,90,0.00,,,0.00,0,Wunderground v.1.15,2013-01-06 10:59:00,
2013-01-06 03:04:00,33.2,30.3,30.18,South,171,0.0,4.0,89,0.00,,,0.00,0,Wunderground v.1.15,2013-01-06 11:04:00,
2013-01-06 03:09:00,33.3,30.4,30.18,South,171,0.0,4.0,89,0.00,,,0.00,0,Wunderground v.1.15,2013-01-06 11:09:00,
2013-01-06 03:14:00,32.9,30.0,30.18,South,171,0.0,2.0,89,0.00,,,0.00,0,Wunderground v.1.15,2013-01-06 11:14:00,
2013-01-06 03:19:00,32.9,30.0,30.17,South,171,1.0,2.0,89,0.00,,,0.00,0,Wunderground v.1.15,2013-01-06 11:19:00,
2013-01-06 03:24:00,32.9,30.0,30.17,South,171,0.0,2.0,89,0.00,,,0.00,0,Wunderground v.1.15,2013-01-06 11:24:00,
2013-01-06 03:30:00,32.9,30.0,30.17,South,171,0.0,2.0,89,0.00,,,0.00,0,Wunderground v.1.15,2013-01-06 11:30:00,
2013-01-06 03:35:00,32.9,30.0,30.17,South,171,0.0,1.0,89,0.00,,,0.00,0,Wunderground v.1.15,2013-01-06 11:35:00,
2013-01-06 03:40:00,33.1,29.9,30.17,South,171,0.0,0.0,88,0.00,,,0.00,0,Wunderground v.1.15,2013-01-06 11:40:00,
2013-01-06 03:45:00,33.2,30.0,30.17,South,171,0.0,0.0,88,0.00,,,0.00,0,Wunderground v.1.15,2013-01-06 11:45:00,
2013-01-06 03:50:00,33.4,30.2,30.17,South,171,2.0,2.0,88,0.00,,,0.00,0,Wunderground v.1.15,2013-01-06 11:50:00,
2013-01-06 03:55:00,34.3,30.8,30.17,South,171,2.0,4.0,87,0.00,,,0.00,0,Wunderground v.1.15,2013-01-06 11:55:00,
2013-01-06 04:00:00,34.8,31.3,30.17,South,171,2.0,4.0,87,0.00,,,0.00,0,Wunderground v.1.15,2013-01-06 12:00:00,
2013-01-06 04:05:00,35.1,31.9,30.17,South,171,2.0,5.0,88,0.00,,,0.00,0,Wunderground v.1.15,2013-01-06 12:05:00,
2013-01-06 04:10:00,35.0,31.8,30.17,South,171,0.0,2.0,88,0.00,,,0.00,0,Wunderground v.1.15,2013-01-06 12:10:00,
2013-01-06 04:15:00,35.2,32.3,30.17,South,171,4.0,5.0,89,0.00,,,0.00,0,Wunderground v.1.15,2013-01-06 12:15:00,
2013-01-06 04:20:00,35.3,32.4,30.16,South,171,2.0,3.0,89,0.00,,,0.00,0,Wunderground v.1.15,2013-01-06 12:20:00,
2013-01-06 04:25:00,35.3,32.4,30.17,South,171,1.0,3.0,89,0.00,,,0.00,0,Wunderground v.1.15,2013-01-06 12:25:00,
2013-01-06 04:30:00,35.5,32.6,30.16,South,171,1.0,1.0,89,0.00,,,0.00,0,Wunderground v.1.15,2013-01-06 12:30:00,
2013-01-06 04:35:00,35.7,32.8,30.16,South,171,1.0,4.0,89,0.00,,,0.00,0,Wunderground v.1.15,2013-01-06 12:35:00,
2013-01-06 04:40:00,35.8,33.2,30.16,South,171,0.0,2.0,90,0.00,,,0.00,0,Wunderground v.1.15,2013-01-06 12:40:00,
2013-01-06 04:45:00,35.7,33.1,30.15,South,171,4.0,4.0,90,0.00,,,0.00,0,Wunderground v.1.15,2013-01-06 12:45:00,
2013-01-06 04:50:00,35.7,33.1,30.15,SE,128,4.0,4.0,90,0.00,,,0.00,0,Wunderground v.1.15,2013-01-06 12:50:00,
2013-01-06 04:55:00,35.8,32.9,30.15,ESE,119,5.0,5.0,89,0.00,,,0.00,0,Wunderground v.1.15,2013-01-06 12:55:00,
2013-01-06 05:00:00,35.7,32.8,30.15,ESE,116,2.0,3.0,89,0.00,,,0.00,0,Wunderground v.1.15,2013-01-06 13:00:00,
2013-01-06 05:05:00,35.6,32.7,30.15,ESE,116,2.0,4.0,89,0.00,,,0.00,0,Wunderground v.1.15,2013-01-06 13:05:00,
2013-01-06 05:10:00,35.6,32.7,30.15,ESE,116,1.0,2.0,89,0.00,,,0.00,0,Wunderground v.1.15,2013-01-06 13:10:00,
2013-01-06 05:15:00,35.7,32.8,30.15,ESE,116,1.0,4.0,89,0.00,,,0.00,0,Wunderground v.1.15,2013-01-06 13:15:00,
2013-01-06 05:20:00,35.7,32.8,30.15,ESE,117,0.0,2.0,89,0.00,,,0.00,0,Wunderground v.1.15,2013-01-06 13:20:00,
2013-01-06 05:25:00,35.8,32.9,30.16,ESE,117,1.0,2.0,89,0.00,,,0.00,0,Wunderground v.1.15,2013-01-06 13:25:00,
2013-01-06 05:30:00,35.9,33.0,30.15,ESE,117,0.0,1.0,89,0.00,,,0.00,0,Wunderground v.1.15,2013-01-06 13:30:00,
2013-01-06 05:35:00,35.8,32.9,30.16,ESE,117,0.0,1.0,89,0.00,,,0.00,0,Wunderground v.1.15,2013-01-06 13:35:00,
2013-01-06 05:40:00,35.7,32.8,30.17,ESE,117,0.0,0.0,89,0.00,,,0.00,0,Wunderground v.1.15,2013-01-06 13:40:00,
2013-01-06 05:45:00,35.7,32.8,30.17,ESE,117,2.0,4.0,89,0.00,,,0.00,0,Wunderground v.1.15,2013-01-06 13:45:00,
2013-01-06 05:50:00,36.2,33.3,30.17,South,181,3.0,3.0,89,0.00,,,0.00,0,Wunderground v.1.15,2013-01-06 13:50:00,
2013-01-06 05:55:00,36.5,33.6,30.17,South,188,4.0,6.0,89,0.00,,,0.00,0,Wunderground v.1.15,2013-01-06 13:55:00,
2013-01-06 06:00:00,36.6,33.9,30.17,South,175,5.0,5.0,90,0.00,,,0.00,0,Wunderground v.1.15,2013-01-06 14:00:00,
2013-01-06 06:05:00,36.7,34.0,30.17,South,175,6.0,6.0,90,0.00,,,0.00,0,Wunderground v.1.15,2013-01-06 14:05:00,
2013-01-06 06:10:00,36.8,34.1,30.17,South,177,6.0,6.0,90,0.00,,,0.00,0,Wunderground v.1.15,2013-01-06 14:10:00,
2013-01-06 06:15:00,36.8,34.1,30.17,South,184,5.0,8.0,90,0.00,,,0.00,0,Wunderground v.1.15,2013-01-06 14:15:00,
2013-01-06 06:20:00,36.9,34.2,30.17,South,184,5.0,7.0,90,0.00,,,0.00,0,Wunderground v.1.15,2013-01-06 14:20:00,
2013-01-06 06:25:00,37.0,34.3,30.17,South,186,9.0,9.0,90,0.00,,,0.00,0,Wunderground v.1.15,2013-01-06 14:25:00,
2013-01-06 06:30:00,37.0,34.3,30.17,South,173,7.0,8.0,90,0.00,,,0.00,0,Wunderground v.1.15,2013-01-06 14:30:00,
2013-01-06 06:36:00,37.0,34.3,30.17,South,171,8.0,9.0,90,0.00,,,0.00,0,Wunderground v.1.15,2013-01-06 14:36:00,
2013-01-06 06:41:00,37.0,34.3,30.17,South,170,6.0,9.0,90,0.00,,,0.00,0,Wunderground v.1.15,2013-01-06 14:41:00,
2013-01-06 06:46:00,37.0,34.3,30.17,South,181,5.0,9.0,90,0.00,,,0.00,0,Wunderground v.1.15,2013-01-06 14:46:00,
2013-01-06 06:51:00,36.9,34.2,30.17,South,171,6.0,7.0,90,0.00,,,0.00,0,Wunderground v.1.15,2013-01-06 14:51:00,
2013-01-06 06:56:00,36.9,34.2,30.17,South,169,6.0,8.0,90,0.00,,,0.00,0,Wunderground v.1.15,2013-01-06 14:56:00,
2013-01-06 07:01:00,36.8,34.1,30.17,SSE,150,2.0,5.0,90,0.00,,,0.00,0,Wunderground v.1.15,2013-01-06 15:01:00,
2013-01-06 07:06:00,36.5,33.8,30.17,SE,142,1.0,5.0,90,0.00,,,0.00,0,Wunderground v.1.15,2013-01-06 15:06:00,
2013-01-06 07:11:00,36.4,33.7,30.17,SE,142,0.0,2.0,90,0.00,,,0.00,0,Wunderground v.1.15,2013-01-06 15:11:00,
2013-01-06 07:16:00,36.4,33.7,30.17,SE,142,0.0,4.0,90,0.00,,,0.00,0,Wunderground v.1.15,2013-01-06 15:16:00,
2013-01-06 07:21:00,36.4,33.7,30.17,SE,142,0.0,1.0,90,0.00,,,0.00,0,Wunderground v.1.15,2013-01-06 15:21:00,
2013-01-06 07:26:00,36.3,33.6,30.17,SE,142,0.0,1.0,90,0.00,,,0.00,0,Wunderground v.1.15,2013-01-06 15:26:00,
2013-01-06 07:31:00,36.3,33.6,30.17,SE,142,0.0,0.0,90,0.00,,,0.00,0,Wunderground v.1.15,2013-01-06 15:31:00,
2013-01-06 07:36:00,36.3,33.4,30.17,SE,142,4.0,4.0,89,0.00,,,0.00,0,Wunderground v.1.15,2013-01-06 15:36:00,
2013-01-06 07:41:00,36.4,33.7,30.17,SE,142,1.0,4.0,90,0.00,,,0.00,0,Wunderground v.1.15,2013-01-06 15:41:00,
2013-01-06 07:46:00,36.5,33.8,30.17,SE,142,2.0,4.0,90,0.00,,,0.00,0,Wunderground v.1.15,2013-01-06 15:46:00,
2013-01-06 07:51:00,36.6,33.9,30.17,South,189,2.0,3.0,90,0.00,,,0.00,0,Wunderground v.1.15,2013-01-06 15:51:00,
2013-01-06 07:56:00,36.7,34.0,30.17,South,190,5.0,6.0,90,0.00,,,0.00,0,Wunderground v.1.15,2013-01-06 15:56:00,
2013-01-06 08:01:00,37.3,34.6,30.18,SSW,199,5.0,5.0,90,0.00,,,0.00,5,Wunderground v.1.15,2013-01-06 16:01:00,
2013-01-06 08:06:00,37.4,34.7,30.17,SSW,198,6.0,8.0,90,0.00,,,0.00,9,Wunderground v.1.15,2013-01-06 16:06:00,
2013-01-06 08:11:00,37.4,34.7,30.18,SSW,202,5.0,6.0,90,0.00,,,0.00,11,Wunderground v.1.15,2013-01-06 16:11:00,
2013-01-06 08:16:00,37.5,34.8,30.18,SSW,211,5.0,7.0,90,0.00,,,0.00,12,Wunderground v.1.15,2013-01-06 16:16:00,
2013-01-06 08:21:00,37.6,34.9,30.18,South,187,4.0,6.0,90,0.00,,,0.00,18,Wunderground v.1.15,2013-01-06 16:21:00,
2013-01-06 08:26:00,37.7,35.0,30.18,South,191,6.0,8.0,90,0.00,,,0.00,25,Wunderground v.1.15,2013-01-06 16:26:00,
2013-01-06 08:31:00,37.7,35.0,30.19,South,170,6.0,7.0,90,0.00,,,0.00,32,Wunderground v.1.15,2013-01-06 16:31:00,
2013-01-06 08:36:00,37.8,35.1,30.19,South,175,5.0,8.0,90,0.00,,,0.00,28,Wunderground v.1.15,2013-01-06 16:36:00,
2013-01-06 08:41:00,37.9,35.2,30.19,South,185,6.0,7.0,90,0.00,,,0.00,25,Wunderground v.1.15,2013-01-06 16:41:00,
2013-01-06 08:46:00,37.9,35.2,30.19,South,188,5.0,8.0,90,0.00,,,0.00,23,Wunderground v.1.15,2013-01-06 16:46:00,
2013-01-06 08:51:00,38.0,35.3,30.19,South,184,4.0,6.0,90,0.00,,,0.00,25,Wunderground v.1.15,2013-01-06 16:51:00,
2013-01-06 08:56:00,38.0,35.3,30.19,South,175,5.0,8.0,90,0.00,,,0.00,35,Wunderground v.1.15,2013-01-06 16:56:00,
2013-01-06 09:02:00,38.0,35.3,30.19,South,180,5.0,8.0,90,0.00,,,0.00,39,Wunderground v.1.15,2013-01-06 17:02:00,
2013-01-06 09:07:00,37.9,35.2,30.19,South,180,2.0,8.0,90,0.00,,,0.00,40,Wunderground v.1.15,2013-01-06 17:07:00,
2013-01-06 09:12:00,37.9,35.2,30.19,South,169,4.0,5.0,90,0.00,,,0.00,53,Wunderground v.1.15,2013-01-06 17:12:00,
2013-01-06 09:17:00,37.8,35.1,30.19,South,169,2.0,5.0,90,0.00,,,0.00,65,Wunderground v.1.15,2013-01-06 17:17:00,
2013-01-06 09:22:00,37.6,34.9,30.19,SSE,168,2.0,5.0,90,0.00,,,0.00,58,Wunderground v.1.15,2013-01-06 17:22:00,
2013-01-06 09:27:00,37.5,34.8,30.19,SSE,168,2.0,5.0,90,0.00,,,0.00,58,Wunderground v.1.15,2013-01-06 17:27:00,
2013-01-06 09:32:00,37.6,34.9,30.20,SSE,168,0.0,2.0,90,0.00,,,0.00,53,Wunderground v.1.15,2013-01-06 17:32:00,
2013-01-06 09:37:00,37.6,34.9,30.20,SSE,168,2.0,2.0,90,0.00,,,0.00,63,Wunderground v.1.15,2013-01-06 17:37:00,
2013-01-06 09:42:00,37.8,35.1,30.20,SSE,168,2.0,4.0,90,0.00,,,0.00,65,Wunderground v.1.15,2013-01-06 17:42:00,
2013-01-06 09:47:00,37.9,35.2,30.20,SSE,168,2.0,4.0,90,0.00,,,0.00,60,Wunderground v.1.15,2013-01-06 17:47:00,
2013-01-06 09:52:00,37.9,35.2,30.20,SSE,168,1.0,4.0,90,0.00,,,0.00,67,Wunderground v.1.15,2013-01-06 17:52:00,
2013-01-06 09:57:00,38.1,35.4,30.20,SSE,168,2.0,4.0,90,0.00,,,0.00,72,Wunderground v.1.15,2013-01-06 17:57:00,
2013-01-06 10:02:00,38.2,35.5,30.20,SSE,168,0.0,2.0,90,0.00,,,0.00,86,Wunderground v.1.15,2013-01-06 18:02:00,
2013-01-06 10:07:00,38.4,35.7,30.20,SSE,168,4.0,5.0,90,0.00,,,0.00,114,Wunderground v.1.15,2013-01-06 18:07:00,
2013-01-06 10:12:00,38.8,36.1,30.21,South,177,7.0,7.0,90,0.00,,,0.00,98,Wunderground v.1.15,2013-01-06 18:12:00,
2013-01-06 10:17:00,39.0,36.3,30.21,SSW,196,5.0,8.0,90,0.00,,,0.00,95,Wunderground v.1.15,2013-01-06 18:17:00,
2013-01-06 10:22:00,39.1,36.4,30.21,SSW,206,5.0,5.0,90,0.00,,,0.00,186,Wunderground v.1.15,2013-01-06 18:22:00,
2013-01-06 10:27:00,39.4,36.7,30.21,SSW,199,5.0,9.0,90,0.00,,,0.00,167,Wunderground v.1.15,2013-01-06 18:27:00,
2013-01-06 10:32:00,39.5,36.8,30.20,South,179,7.0,7.0,90,0.00,,,0.00,111,Wunderground v.1.15,2013-01-06 18:32:00,
2013-01-06 10:37:00,39.7,37.0,30.20,SSW,198,7.0,9.0,90,0.00,,,0.00,120,Wunderground v.1.15,2013-01-06 18:37:00,
2013-01-06 10:42:00,39.7,37.0,30.20,South,187,6.0,8.0,90,0.00,,,0.00,158,Wunderground v.1.15,2013-01-06 18:42:00,
2013-01-06 10:47:00,40.0,37.3,30.20,SSW,203,6.0,8.0,90,0.00,,,0.00,169,Wunderground v.1.15,2013-01-06 18:47:00,
2013-01-06 10:52:00,40.1,37.4,30.19,South,190,5.0,8.0,90,0.00,,,0.00,149,Wunderground v.1.15,2013-01-06 18:52:00,
2013-01-06 10:57:00,40.1,37.4,30.19,South,182,6.0,8.0,90,0.00,,,0.00,125,Wunderground v.1.15,2013-01-06 18:57:00,
2013-01-06 11:02:00,40.1,37.4,30.19,SSW,192,3.0,6.0,90,0.00,,,0.00,104,Wunderground v.1.15,2013-01-06 19:02:00,
2013-01-06 11:07:00,40.2,37.5,30.18,SSW,196,3.0,7.0,90,0.00,,,0.00,227,Wunderground v.1.15,2013-01-06 19:07:00,
2013-01-06 11:12:00,40.5,37.8,30.18,SSW,194,7.0,7.0,90,0.00,,,0.00,193,Wunderground v.1.15,2013-01-06 19:12:00,
2013-01-06 11:17:00,40.6,37.9,30.17,South,191,3.0,7.0,90,0.00,,,0.00,193,Wunderground v.1.15,2013-01-06 19:17:00,
2013-01-06 11:22:00,40.6,37.9,30.17,South,187,3.0,6.0,90,0.00,,,0.00,179,Wunderground v.1.15,2013-01-06 19:22:00,
2013-01-06 11:27:00,41.0,38.3,30.17,SW,221,4.0,8.0,90,0.00,,,0.00,220,Wunderground v.1.15,2013-01-06 19:27:00,
2013-01-06 11:32:00,41.1,38.4,30.17,SW,225,5.0,6.0,90,0.00,,,0.00,207,Wunderground v.1.15,2013-01-06 19:32:00,
2013-01-06 11:37:00,41.0,38.3,30.17,SSW,211,5.0,6.0,90,0.00,,,0.00,190,Wunderground v.1.15,2013-01-06 19:37:00,
2013-01-06 11:47:00,41.1,38.4,30.16,SW,214,4.0,7.0,90,0.00,,,0.00,186,Wunderground v.1.15,2013-01-06 19:47:00,
2013-01-06 11:56:00,41.5,38.8,30.16,SSW,202,6.0,8.0,90,0.00,,,0.00,206,Wunderground v.1.15,2013-01-06 19:56:00,
2013-01-06 12:01:00,41.5,38.8,30.16,SSW,196,4.0,6.0,90,0.00,,,0.00,192,Wunderground v.1.15,2013-01-06 20:01:00,
2013-01-06 12:08:00,41.8,39.1,30.15,SSW,206,5.0,8.0,90,0.00,,,0.00,193,Wunderground v.1.15,2013-01-06 20:08:00,
2013-01-06 12:11:00,41.8,39.1,30.15,SW,220,6.0,7.0,90,0.00,,,0.00,188,Wunderground v.1.15,2013-01-06 20:11:00,
2013-01-06 12:13:00,41.8,39.1,30.15,SW,228,7.0,8.0,90,0.00,,,0.00,185,Wunderground v.1.15,2013-01-06 20:13:00,
2013-01-06 12:18:00,41.8,39.1,30.15,SW,221,6.0,8.0,90,0.00,,,0.00,185,Wunderground v.1.15,2013-01-06 20:18:00,
2013-01-06 12:23:00,42.0,39.3,30.15,SW,221,7.0,7.0,90,0.00,,,0.00,176,Wunderground v.1.15,2013-01-06 20:23:00,
2013-01-06 12:28:00,42.0,39.3,30.15,SW,226,4.0,9.0,90,0.00,,,0.00,165,Wunderground v.1.15,2013-01-06 20:28:00,
2013-01-06 12:33:00,42.1,39.1,30.15,SW,221,7.0,8.0,89,0.00,,,0.00,144,Wunderground v.1.15,2013-01-06 20:33:00,
2013-01-06 12:38:00,42.0,39.3,30.15,SSW,211,4.0,8.0,90,0.00,,,0.00,128,Wunderground v.1.15,2013-01-06 20:38:00,
2013-01-06 12:43:00,42.1,39.4,30.15,SSW,199,5.0,8.0,90,0.00,,,0.00,120,Wunderground v.1.15,2013-01-06 20:43:00,
2013-01-06 12:48:00,42.0,39.3,30.15,SSW,207,5.0,9.0,90,0.00,,,0.00,118,Wunderground v.1.15,2013-01-06 20:48:00,
2013-01-06 12:53:00,42.3,39.6,30.15,SSW,199,5.0,5.0,90,0.00,,,0.00,120,Wunderground v.1.15,2013-01-06 20:53:00,
2013-01-06 12:58:00,42.4,39.4,30.15,South,173,8.0,8.0,89,0.00,,,0.00,120,Wunderground v.1.15,2013-01-06 20:58:00,
2013-01-06 13:01:00,42.4,39.4,30.15,South,179,6.0,6.0,89,0.00,,,0.00,109,Wunderground v.1.15,2013-01-06 21:01:00,
2013-01-06 13:06:00,42.3,39.3,30.15,SSW,207,5.0,8.0,89,0.00,,,0.00,109,Wunderground v.1.15,2013-01-06 21:06:00,
2013-01-06 13:11:00,42.3,39.3,30.15,SSW,198,6.0,7.0,89,0.00,,,0.00,109,Wunderground v.1.15,2013-01-06 21:11:00,
2013-01-06 13:16:00,42.3,39.3,30.15,SSW,205,7.0,9.0,89,0.00,,,0.00,107,Wunderground v.1.15,2013-01-06 21:16:00,
2013-01-06 13:21:00,42.4,39.4,30.15,SSW,203,6.0,8.0,89,0.00,,,0.00,105,Wunderground v.1.15,2013-01-06 21:21:00,
2013-01-06 13:26:00,42.6,39.6,30.15,SSW,194,5.0,9.0,89,0.00,,,0.00,100,Wunderground v.1.15,2013-01-06 21:26:00,
2013-01-06 13:31:00,42.6,39.6,30.15,SSW,198,5.0,8.0,89,0.00,,,0.00,97,Wunderground v.1.15,2013-01-06 21:31:00,
2013-01-06 13:36:00,42.6,39.6,30.14,SSW,207,7.0,8.0,89,0.00,,,0.00,95,Wunderground v.1.15,2013-01-06 21:36:00,
2013-01-06 13:41:00,42.6,39.6,30.14,SSW,198,6.0,7.0,89,0.00,,,0.00,93,Wunderground v.1.15,2013-01-06 21:41:00,
2013-01-06 13:46:00,42.7,39.7,30.14,SSW,207,6.0,9.0,89,0.00,,,0.00,98,Wunderground v.1.15,2013-01-06 21:46:00,
2013-01-06 13:51:00,42.7,39.7,30.14,SSW,194,6.0,7.0,89,0.00,,,0.00,91,Wunderground v.1.15,2013-01-06 21:51:00,
2013-01-06 13:56:00,42.7,39.7,30.13,SW,217,4.0,7.0,89,0.00,,,0.00,81,Wunderground v.1.15,2013-01-06 21:56:00,
2013-01-06 14:01:00,42.8,39.8,30.13,South,184,5.0,7.0,89,0.00,,,0.00,81,Wunderground v.1.15,2013-01-06 22:01:00,
2013-01-06 14:06:00,42.7,39.7,30.13,SW,214,5.0,7.0,89,0.00,,,0.00,77,Wunderground v.1.15,2013-01-06 22:06:00,
2013-01-06 14:11:00,42.7,39.7,30.13,SSW,194,3.0,6.0,89,0.00,,,0.00,74,Wunderground v.1.15,2013-01-06 22:11:00,
2013-01-06 14:16:00,42.6,39.6,30.12,SSW,194,5.0,6.0,89,0.00,,,0.00,72,Wunderground v.1.15,2013-01-06 22:16:00,
2013-01-06 14:21:00,42.7,39.7,30.12,SSW,194,2.0,4.0,89,0.00,,,0.00,70,Wunderground v.1.15,2013-01-06 22:21:00,
2013-01-06 14:26:00,42.7,39.7,30.13,SSW,194,3.0,5.0,89,0.00,,,0.00,65,Wunderground v.1.15,2013-01-06 22:26:00,
2013-01-06 14:31:00,42.7,39.7,30.13,SSW,194,4.0,5.0,89,0.00,,,0.00,58,Wunderground v.1.15,2013-01-06 22:31:00,
2013-01-06 14:36:00,42.7,39.7,30.12,SSW,194,2.0,5.0,89,0.00,,,0.00,53,Wunderground v.1.15,2013-01-06 22:36:00,
2013-01-06 14:41:00,42.6,39.6,30.12,South,175,6.0,6.0,89,0.00,,,0.00,67,Wunderground v.1.15,2013-01-06 22:41:00,
2013-01-06 14:46:00,42.7,39.7,30.12,SSW,211,4.0,7.0,89,0.00,,,0.00,77,Wunderground v.1.15,2013-01-06 22:46:00,
2013-01-06 14:51:00,42.7,39.7,30.12,SSW,196,2.0,4.0,89,0.00,,,0.00,70,Wunderground v.1.15,2013-01-06 22:51:00,
2013-01-06 14:56:00,42.7,39.7,30.12,SSW,197,4.0,5.0,89,0.00,,,0.00,63,Wunderground v.1.15,2013-01-06 22:56:00,
2013-01-06 15:01:00,42.8,39.8,30.12,SSW,201,5.0,5.0,89,0.00,,,0.00,53,Wunderground v.1.15,2013-01-06 23:01:00,
2013-01-06 15:06:00,42.6,39.6,30.12,SSW,196,5.0,7.0,89,0.00,,,0.00,46,Wunderground v.1.15,2013-01-06 23:06:00,
2013-01-06 15:11:00,42.6,39.6,30.11,SSW,203,4.0,6.0,89,0.00,,,0.00,39,Wunderground v.1.15,2013-01-06 23:11:00,
2013-01-06 15:16:00,42.5,39.8,30.11,SSW,209,4.0,7.0,90,0.00,,,0.00,42,Wunderground v.1.15,2013-01-06 23:16:00,
2013-01-06 15:21:00,42.5,39.8,30.11,SSW,197,4.0,6.0,90,0.00,,,0.00,53,Wunderground v.1.15,2013-01-06 23:21:00,
2013-01-06 15:26:00,42.5,39.8,30.11,SSW,197,3.0,6.0,90,0.00,,,0.00,53,Wunderground v.1.15,2013-01-06 23:26:00,
2013-01-06 15:31:00,42.6,39.9,30.11,SSW,197,3.0,4.0,90,0.00,,,0.00,44,Wunderground v.1.15,2013-01-06 23:31:00,
2013-01-06 15:36:00,42.6,39.9,30.11,SW,221,5.0,6.0,90,0.00,,,0.00,25,Wunderground v.1.15,2013-01-06 23:36:00,
2013-01-06 15:41:00,42.6,39.9,30.10,SSW,200,4.0,5.0,90,0.00,,,0.00,14,Wunderground v.1.15,2013-01-06 23:41:00,
2013-01-06 15:46:00,42.4,39.7,30.10,South,191,5.0,6.0,90,0.00,,,0.00,12,Wunderground v.1.15,2013-01-06 23:46:00,
2013-01-06 15:51:00,42.4,39.4,30.10,South,190,1.0,4.0,89,0.00,,,0.00,12,Wunderground v.1.15,2013-01-06 23:51:00,
2013-01-06 15:56:00,42.4,39.7,30.10,South,184,3.0,8.0,90,0.00,,,0.00,14,Wunderground v.1.15,2013-01-06 23:56:00,
2013-01-06 16:01:00,42.4,39.7,30.10,South,181,4.0,5.0,90,0.00,,,0.00,12,Wunderground v.1.15,2013-01-07 00:01:00,
2013-01-06 16:06:00,42.3,39.6,30.10,South,190,4.0,7.0,90,0.00,,,0.00,11,Wunderground v.1.15,2013-01-07 00:06:00,
2013-01-06 16:11:00,42.3,39.6,30.11,SSW,196,4.0,7.0,90,0.00,,,0.00,7,Wunderground v.1.15,2013-01-07 00:11:00,
2013-01-06 16:16:00,42.2,39.5,30.11,South,188,2.0,7.0,90,0.00,,,0.00,7,Wunderground v.1.15,2013-01-07 00:16:00,
2013-01-06 16:21:00,42.2,39.5,30.11,ESE,117,4.0,5.0,90,0.00,,,0.00,5,Wunderground v.1.15,2013-01-07 00:21:00,
2013-01-06 16:26:00,42.1,39.4,30.11,SW,227,7.0,8.0,90,0.00,,,0.00,0,Wunderground v.1.15,2013-01-07 00:26:00,
2013-01-06 16:31:00,42.0,39.3,30.10,SW,217,5.0,6.0,90,0.00,,,0.00,0,Wunderground v.1.15,2013-01-07 00:31:00,
2013-01-06 16:36:00,41.9,39.2,30.10,South,181,4.0,8.0,90,0.00,,,0.00,0,Wunderground v.1.15,2013-01-07 00:36:00,
2013-01-06 16:42:00,41.9,39.2,30.10,South,188,5.0,9.0,90,0.00,,,0.00,0,Wunderground v.1.15,2013-01-07 00:42:00,
2013-01-06 16:47:00,41.8,39.1,30.10,SSW,194,5.0,9.0,90,0.00,,,0.00,0,Wunderground v.1.15,2013-01-07 00:47:00,
2013-01-06 16:52:00,41.7,39.0,30.10,SSW,194,4.0,6.0,90,0.00,,,0.00,0,Wunderground v.1.15,2013-01-07 00:52:00,
2013-01-06 16:57:00,41.7,39.0,30.10,SSW,196,4.0,8.0,90,0.00,,,0.00,0,Wunderground v.1.15,2013-01-07 00:57:00,
2013-01-06 17:02:00,41.6,38.9,30.10,SSW,196,6.0,7.0,90,0.00,,,0.00,0,Wunderground v.1.15,2013-01-07 01:02:00,
2013-01-06 17:07:00,41.6,38.9,30.10,SSW,202,4.0,7.0,90,0.00,,,0.00,0,Wunderground v.1.15,2013-01-07 01:07:00,
2013-01-06 17:12:00,41.5,38.8,30.10,SSW,194,6.0,8.0,90,0.00,,,0.00,0,Wunderground v.1.15,2013-01-07 01:12:00,
2013-01-06 17:18:00,41.5,38.8,30.10,South,184,6.0,9.0,90,0.00,,,0.00,0,Wunderground v.1.15,2013-01-07 01:18:00,
2013-01-06 17:23:00,41.4,38.7,30.10,SSW,192,6.0,7.0,90,0.00,,,0.00,0,Wunderground v.1.15,2013-01-07 01:23:00,
2013-01-06 17:28:00,41.4,38.7,30.11,SSW,206,8.0,8.0,90,0.00,,,0.00,0,Wunderground v.1.15,2013-01-07 01:28:00,
2013-01-06 17:33:00,41.3,38.6,30.10,SSW,202,4.0,5.0,90,0.00,,,0.00,0,Wunderground v.1.15,2013-01-07 01:33:00,
2013-01-06 17:38:00,41.2,38.5,30.10,SSW,211,5.0,6.0,90,0.00,,,0.00,0,Wunderground v.1.15,2013-01-07 01:38:00,
2013-01-06 17:43:00,41.1,38.4,30.10,SSW,192,5.0,6.0,90,0.00,,,0.01,0,Wunderground v.1.15,2013-01-07 01:43:00,
2013-01-06 17:48:00,41.0,38.0,30.10,SSW,213,8.0,8.0,89,0.00,,,0.01,0,Wunderground v.1.15,2013-01-07 01:48:00,
2013-01-06 17:54:00,40.9,37.9,30.09,SSW,192,4.0,5.0,89,0.00,,,0.01,0,Wunderground v.1.15,2013-01-07 01:54:00,
2013-01-06 17:59:00,40.8,37.8,30.09,South,182,5.0,7.0,89,0.00,,,0.02,0,Wunderground v.1.15,2013-01-07 01:59:00,
2013-01-06 18:04:00,40.8,37.8,30.08,South,176,6.0,8.0,89,0.00,,,0.02,0,Wunderground v.1.15,2013-01-07 02:04:00,
2013-01-06 18:09:00,40.7,37.4,30.09,South,175,4.0,8.0,88,0.06,,,0.03,0,Wunderground v.1.15,2013-01-07 02:09:00,
2013-01-06 18:14:00,40.7,37.4,30.09,South,175,5.0,5.0,88,0.06,,,0.03,0,Wunderground v.1.15,2013-01-07 02:14:00,
2013-01-06 18:19:00,40.7,37.4,30.08,South,188,5.0,7.0,88,0.05,,,0.03,0,Wunderground v.1.15,2013-01-07 02:19:00,
2013-01-06 18:24:00,40.7,37.4,30.08,South,183,4.0,7.0,88,0.05,,,0.04,0,Wunderground v.1.15,2013-01-07 02:24:00,
2013-01-06 18:30:00,40.6,37.3,30.08,SSW,200,3.0,7.0,88,0.05,,,0.04,0,Wunderground v.1.15,2013-01-07 02:30:00,
2013-01-06 18:35:00,40.6,37.0,30.08,South,190,6.0,7.0,87,0.05,,,0.05,0,Wunderground v.1.15,2013-01-07 02:35:00,
2013-01-06 18:40:00,40.6,37.0,30.09,SSW,192,4.0,5.0,87,0.05,,,0.05,0,Wunderground v.1.15,2013-01-07 02:40:00,
2013-01-06 18:45:00,40.6,37.0,30.09,SSW,194,2.0,6.0,87,0.05,,,0.06,0,Wunderground v.1.15,2013-01-07 02:45:00,
2013-01-06 18:50:00,40.6,37.0,30.08,South,191,4.0,4.0,87,0.05,,,0.06,0,Wunderground v.1.15,2013-01-07 02:50:00,
2013-01-06 18:55:00,40.6,37.0,30.08,South,191,3.0,5.0,87,0.05,,,0.06,0,Wunderground v.1.15,2013-01-07 02:55:00,
2013-01-06 19:00:00,40.6,37.0,30.08,South,191,3.0,3.0,87,0.00,,,0.06,0,Wunderground v.1.15,2013-01-07 03:00:00,
2013-01-06 19:05:00,40.6,37.0,30.08,South,191,1.0,3.0,87,0.00,,,0.06,0,Wunderground v.1.15,2013-01-07 03:05:00,
2013-01-06 19:10:00,40.5,36.9,30.08,South,191,1.0,1.0,87,0.00,,,0.06,0,Wunderground v.1.15,2013-01-07 03:10:00,
2013-01-06 19:15:00,40.5,36.9,30.08,South,191,0.0,1.0,87,0.00,,,0.06,0,Wunderground v.1.15,2013-01-07 03:15:00,
2013-01-06 19:20:00,40.5,36.9,30.07,South,191,0.0,0.0,87,0.00,,,0.06,0,Wunderground v.1.15,2013-01-07 03:20:00,
2013-01-06 19:25:00,40.4,36.8,30.07,South,191,0.0,1.0,87,0.00,,,0.06,0,Wunderground v.1.15,2013-01-07 03:25:00,
2013-01-06 19:30:00,40.4,36.8,30.07,South,191,0.0,0.0,87,0.00,,,0.06,0,Wunderground v.1.15,2013-01-07 03:30:00,
2013-01-06 19:35:00,40.4,36.5,30.06,South,191,3.0,3.0,86,0.00,,,0.07,0,Wunderground v.1.15,2013-01-07 03:35:00,
2013-01-06 19:40:00,40.5,36.6,30.06,South,173,2.0,2.0,86,0.00,,,0.07,0,Wunderground v.1.15,2013-01-07 03:40:00,
2013-01-06 19:45:00,40.5,36.9,30.06,South,173,0.0,2.0,87,0.00,,,0.07,0,Wunderground v.1.15,2013-01-07 03:45:00,
2013-01-06 19:50:00,40.4,36.5,30.06,South,173,0.0,0.0,86,0.00,,,0.07,0,Wunderground v.1.15,2013-01-07 03:50:00,
2013-01-06 19:55:00,40.4,36.5,30.06,South,173,0.0,1.0,86,0.00,,,0.07,0,Wunderground v.1.15,2013-01-07 03:55:00,
2013-01-06 20:00:00,40.5,36.6,30.06,South,173,4.0,4.0,86,0.00,,,0.07,0,Wunderground v.1.15,2013-01-07 04:00:00,
2013-01-06 20:05:00,40.8,36.9,30.05,South,173,2.0,5.0,86,0.00,,,0.07,0,Wunderground v.1.15,2013-01-07 04:05:00,
2013-01-06 20:10:00,41.0,37.1,30.06,South,173,4.0,4.0,86,0.00,,,0.08,0,Wunderground v.1.15,2013-01-07 04:10:00,
2013-01-06 20:15:00,41.1,37.5,30.06,South,173,4.0,5.0,87,0.00,,,0.08,0,Wunderground v.1.15,2013-01-07 04:15:00,
2013-01-06 20:20:00,41.7,38.4,30.05,ESE,117,7.0,8.0,88,0.00,,,0.08,0,Wunderground v.1.15,2013-01-07 04:20:00,
2013-01-06 20:25:00,41.8,38.5,30.06,SE,131,5.0,9.0,88,0.00,,,0.08,0,Wunderground v.1.15,2013-01-07 04:25:00,
2013-01-06 20:30:00,42.0,39.0,30.05,SE,134,6.0,7.0,89,0.00,,,0.08,0,Wunderground v.1.15,2013-01-07 04:30:00,
2013-01-06 20:36:00,42.0,39.0,30.06,SSE,150,7.0,7.0,89,0.00,,,0.08,0,Wunderground v.1.15,2013-01-07 04:36:00,
2013-01-06 20:41:00,42.2,39.2,30.06,SSE,159,2.0,6.0,89,0.00,,,0.08,0,Wunderground v.1.15,2013-01-07 04:41:00,
2013-01-06 20:46:00,42.4,39.7,30.06,SSE,160,6.0,8.0,90,0.00,,,0.08,0,Wunderground v.1.15,2013-01-07 04:46:00,
2013-01-06 20:51:00,42.4,39.7,30.06,SE,128,6.0,6.0,90,0.00,,,0.08,0,Wunderground v.1.15,2013-01-07 04:51:00,
2013-01-06 20:56:00,42.5,39.8,30.05,SE,144,7.0,9.0,90,0.00,,,0.08,0,Wunderground v.1.15,2013-01-07 04:56:00,
2013-01-06 21:01:00,42.5,39.8,30.05,East,84,3.0,5.0,90,0.00,,,0.09,0,Wunderground v.1.15,2013-01-07 05:01:00,
2013-01-06 21:02:00,42.5,39.8,30.05,ESE,122,5.0,6.0,90,0.00,,,0.09,0,Wunderground v.1.15,2013-01-07 05:02:00,
2013-01-06 21:07:00,42.4,39.7,30.05,SE,140,8.0,9.0,90,0.00,,,0.09,0,Wunderground v.1.15,2013-01-07 05:07:00,
2013-01-06 21:12:00,42.5,39.8,30.05,SSE,150,5.0,6.0,90,0.00,,,0.09,0,Wunderground v.1.15,2013-01-07 05:12:00,
2013-01-06 21:17:00,42.5,39.8,30.05,SE,144,5.0,9.0,90,0.00,,,0.09,0,Wunderground v.1.15,2013-01-07 05:17:00,
2013-01-06 21:22:00,42.4,39.7,30.04,ESE,123,4.0,11.0,90,0.00,,,0.09,0,Wunderground v.1.15,2013-01-07 05:22:00,
2013-01-06 21:27:00,42.3,39.6,30.04,ESE,122,4.0,11.0,90,0.00,,,0.10,0,Wunderground v.1.15,2013-01-07 05:27:00,
2013-01-06 21:32:00,42.2,39.2,30.04,East,93,5.0,12.0,89,0.00,,,0.10,0,Wunderground v.1.15,2013-01-07 05:32:00,
2013-01-06 21:37:00,42.3,39.6,30.04,SSE,150,6.0,12.0,90,0.00,,,0.10,0,Wunderground v.1.15,2013-01-07 05:37:00,
2013-01-06 21:42:00,42.4,39.7,30.04,ESE,123,4.0,8.0,90,0.00,,,0.10,0,Wunderground v.1.15,2013-01-07 05:42:00,
2013-01-06 21:47:00,42.6,39.9,30.04,East,100,5.0,13.0,90,0.00,,,0.10,0,Wunderground v.1.15,2013-01-07 05:47:00,
2013-01-06 21:52:00,42.5,39.8,30.04,ESE,115,9.0,12.0,90,0.00,,,0.10,0,Wunderground v.1.15,2013-01-07 05:52:00,
2013-01-06 21:57:00,42.5,39.8,30.04,SE,126,5.0,12.0,90,0.00,,,0.10,0,Wunderground v.1.15,2013-01-07 05:57:00,
2013-01-06 22:02:00,42.5,39.8,30.03,SE,135,7.0,11.0,90,0.00,,,0.10,0,Wunderground v.1.15,2013-01-07 06:02:00,
2013-01-06 22:07:00,42.6,39.9,30.03,SE,128,6.0,13.0,90,0.00,,,0.10,0,Wunderground v.1.15,2013-01-07 06:07:00,
2013-01-06 22:12:00,42.4,39.7,30.03,ESE,118,2.0,8.0,90,0.00,,,0.10,0,Wunderground v.1.15,2013-01-07 06:12:00,
2013-01-06 22:17:00,42.4,39.7,30.02,SE,136,8.0,9.0,90,0.00,,,0.10,0,Wunderground v.1.15,2013-01-07 06:17:00,
2013-01-06 22:22:00,42.4,39.7,30.02,SE,131,5.0,9.0,90,0.00,,,0.10,0,Wunderground v.1.15,2013-01-07 06:22:00,
2013-01-06 22:27:00,42.3,39.6,30.02,ESE,113,11.0,11.0,90,0.00,,,0.10,0,Wunderground v.1.15,2013-01-07 06:27:00,
2013-01-06 22:32:00,42.3,39.6,30.03,ESE,123,5.0,8.0,90,0.00,,,0.10,0,Wunderground v.1.15,2013-01-07 06:32:00,
2013-01-06 22:37:00,42.2,39.2,30.03,SE,135,9.0,12.0,89,0.00,,,0.10,0,Wunderground v.1.15,2013-01-07 06:37:00,
2013-01-06 22:43:00,42.3,39.6,30.02,SE,128,8.0,10.0,90,0.00,,,0.10,0,Wunderground v.1.15,2013-01-07 06:43:00,
2013-01-06 22:48:00,42.2,39.5,30.02,ESE,118,7.0,11.0,90,0.00,,,0.10,0,Wunderground v.1.15,2013-01-07 06:48:00,
2013-01-06 22:53:00,42.2,39.2,30.02,SE,146,4.0,8.0,89,0.00,,,0.10,0,Wunderground v.1.15,2013-01-07 06:53:00,
2013-01-06 22:58:00,42.1,39.1,30.01,SE,142,7.0,9.0,89,0.00,,,0.10,0,Wunderground v.1.15,2013-01-07 06:58:00,
2013-01-06 23:03:00,42.2,39.2,30.01,SE,133,7.0,9.0,89,0.00,,,0.10,0,Wunderground v.1.15,2013-01-07 07:03:00,
2013-01-06 23:08:00,42.2,39.2,30.01,SE,137,5.0,9.0,89,0.00,,,0.11,0,Wunderground v.1.15,2013-01-07 07:08:00,
2013-01-06 23:13:00,42.2,39.2,30.01,SE,126,5.0,9.0,89,0.00,,,0.11,0,Wunderground v.1.15,2013-01-07 07:13:00,
2013-01-06 23:18:00,42.2,39.2,30.00,ESE,116,5.0,9.0,89,0.00,,,0.11,0,Wunderground v.1.15,2013-01-07 07:18:00,
2013-01-06 23:23:00,42.2,39.2,30.00,SE,127,2.0,6.0,89,0.00,,,0.11,0,Wunderground v.1.15,2013-01-07 07:23:00,
2013-01-06 23:28:00,42.2,39.2,30.00,SE,128,5.0,8.0,89,0.00,,,0.12,0,Wunderground v.1.15,2013-01-07 07:28:00,
2013-01-06 23:33:00,42.2,39.2,30.00,ESE,119,4.0,7.0,89,0.00,,,0.12,0,Wunderground v.1.15,2013-01-07 07:33:00,
2013-01-06 23:38:00,42.2,39.2,30.00,SE,133,4.0,8.0,89,0.00,,,0.12,0,Wunderground v.1.15,2013-01-07 07:38:00,
2013-01-06 23:43:00,42.1,39.1,30.00,SE,128,7.0,7.0,89,0.00,,,0.12,0,Wunderground v.1.15,2013-01-07 07:43:00,
2013-01-06 23:48:00,42.3,39.3,29.99,SE,128,4.0,8.0,89,0.00,,,0.12,0,Wunderground v.1.15,2013-01-07 07:48:00,
2013-01-06 23:54:00,42.2,39.2,29.99,ESE,115,4.0,5.0,89,0.00,,,0.12,0,Wunderground v.1.15,2013-01-07 07:54:00,
2013-01-06 23:59:00,42.1,39.1,29.99,ESE,105,4.0,7.0,89,0.00,,,0.12,0,Wunderground v.1.15,2013-01-07 07:59:00,